ADDS METAR Data INFO
IDs: Format: Raw Decoded Include TAF

Data at: 1155 UTC 23 Jun 2018

KHVR 231053Z AUTO 25003KT 10SM SCT110 12/12 A2978 RMK AO2 SLP075 T01220117
KHVR 230953Z AUTO 22009KT 10SM CLR 14/13 A2978 RMK AO2 SLP072 T01390128
KHVR 230853Z AUTO 24008KT 10SM CLR 15/14 A2977 RMK AO2 SLP069 T01500139 53001
KHVR 230753Z AUTO 24006KT 10SM CLR 16/13 A2976 RMK AO2 SLP060 T01560133
KHVR 230653Z AUTO 22009KT 10SM CLR 17/14 A2975 RMK AO2 SLP058 T01670139 402830133
KHVR 230553Z AUTO 28007KT 10SM SCT095 BKN120 19/13 A2977 RMK AO2 LTG DSNT SE AND S SLP062 60000 T01940133 10217 20167 53008
KHVR 230453Z AUTO 26008KT 10SM CLR 18/14 A2977 RMK AO2 LTG DSNT S AND SW SLP064 T01780144
KHVR 230353Z AUTO 22012KT 10SM FEW110 19/14 A2974 RMK AO2 SLP057 T01890139
KHVR 230253Z AUTO 19012KT 10SM FEW100 BKN120 19/13 A2974 RMK AO2 RAB0155E05 SLP058 P0000 60000 T01940133 57002
KHVR 230153Z AUTO 22016KT 10SM SCT110 20/13 A2975 RMK AO2 LTG DSNT S SLP061 T02000128
KHVR 230146Z AUTO 21009KT 10SM FEW120 19/13 A2974 RMK AO2 LTG DSNT S T01940133
KHVR 230053Z AUTO 23013KT 10SM VCTS FEW080 22/12 A2974 RMK AO2 LTG DSNT SW AND W SLP062 T02170122
KHVR 230043Z AUTO 21014KT 10SM CLR 21/13 A2974 RMK AO2 LTG DSNT W AND NW T02060133
KHVR 230013Z AUTO 23015G21KT 10SM VCTS SCT080 21/13 A2975 RMK AO2 LTG DSNT W T02060133
KHVR 230005Z AUTO 22016KT 10SM FEW075 19/14 A2975 RMK AO2 LTG DSNT W T01940139
KHVR 222353Z AUTO 22018G29KT 10SM VCTS CLR 20/13 A2975 RMK AO2 PK WND 21032/2327 LTG DSNT SW AND W SLP066 T02000133 10283 20200 56007
KHVR 222325Z AUTO 23023G29KT 10SM VCTS FEW110 23/13 A2975 RMK AO2 PK WND 23029/2324 LTG DSNT SW AND W T02330128
KHVR 222253Z AUTO 21012KT 10SM FEW038 23/13 A2975 RMK AO2 LTG DSNT SW SLP062 T02330128
KHVR 222153Z AUTO 22010KT 10SM CLR 24/12 A2975 RMK AO2 LTG DSNT SW SLP064 T02390117
KHVR 222053Z AUTO 25012KT 10SM CLR 23/10 A2977 RMK AO2 PK WND 25030/2011 LTG DSNT S-W SLP070 T02330100 56006
KHVR 222035Z AUTO 26015KT 10SM FEW095 24/12 A2978 RMK AO2 PK WND 25030/2011 LTG DSNT SW T02390117
KHVR 221953Z AUTO 30017G22KT 10SM VCTS FEW060 28/12 A2977 RMK AO2 LTG DSNT SW AND W SLP067 T02780117
KHVR 221853Z AUTO 29013G20KT 10SM FEW100 27/12 A2979 RMK AO2 LTG DSNT W SLP074 T02670122
KHVR 221753Z AUTO 29011KT 10SM FEW110 27/12 A2981 RMK AO2 SLP078 T02670122 10267 20133 58007
KHVR 221653Z AUTO 28012KT 10SM SCT110 24/12 A2982 RMK AO2 SLP082 T02440122
KHVR 221553Z AUTO 25011KT 10SM CLR 22/13 A2983 RMK AO2 SLP086 T02170128
KHVR 221453Z AUTO 24013KT 10SM CLR 20/12 A2983 RMK AO2 SLP088 T02000122 50002
KHVR 221353Z AUTO 23012KT 10SM CLR 18/13 A2983 RMK AO2 SLP088 T01780128
KHVR 221253Z AUTO 23010KT 10SM CLR 15/13 A2983 RMK AO2 SLP088 T01500128
KHVR 221153Z AUTO 23010KT 10SM CLR 13/12 A2982 RMK AO2 SLP088 70011 T01330122 10161 20133 52002
KHVR 221053Z AUTO 22010KT 10SM CLR 14/13 A2982 RMK AO2 SLP088 T01390128
KHVR 220953Z AUTO 23010KT 10SM CLR 14/13 A2982 RMK AO2 SLP085 T01390128
KHVR 220853Z AUTO 00000KT 10SM CLR 14/13 A2982 RMK AO2 SLP082 T01440133 51001
KHVR 220753Z AUTO 25006KT 10SM CLR 14/13 A2982 RMK AO2 SLP082 T01440133
KHVR 220653Z AUTO 20005KT 10SM CLR 14/13 A2982 RMK AO2 SLP082 T01440133 403000122
KHVR 220553Z AUTO 00000KT 10SM CLR 16/13 A2981 RMK AO2 SLP081 T01610133 10256 20150 51000
KHVR 220453Z AUTO 19005KT 10SM CLR 17/13 A2981 RMK AO2 SLP079 T01720133
KHVR 220353Z AUTO 21006KT 10SM CLR 19/15 A2982 RMK AO2 SLP084 T01890150
KHVR 220253Z AUTO 14004KT 10SM FEW075 21/16 A2981 RMK AO2 SLP082 T02110156 50001
KHVR 220153Z AUTO 23005KT 10SM CLR 24/13 A2982 RMK AO2 SLP084 T02440133
KHVR 220053Z AUTO 23008KT 10SM CLR 25/13 A2981 RMK AO2 LTG DSNT E SLP082 T02500133